Time;durP1;ratioP1;P1;durP2;ratioP2;P2;SDS_P1;SDS_P2;PMS_P1;PMS_P2;Temp;Humidity;BMP_temperature;BMP_pressure;BME280_temperature;BME280_humidity;BME280_pressure;Samples;Min_cycle;Max_cycle;Signal;HPM_P1;HPM_P2
2022/04/04 00:01:51;;;;;;;;;;;;;;;12.48;37.52;100716.22;4940271;28;126050;-62
2022/04/04 00:04:17;;;;;;;;;;;;;;;12.48;37.91;100708.09;4941920;28;98047;-62
2022/04/04 00:06:44;;;;;;;;;;;;;;;12.45;37.83;100714.03;4941706;28;111253;-62
2022/04/04 00:09:10;;;;;;;;;;;;;;;12.43;37.64;100708.91;4940998;28;99053;-65
2022/04/04 00:11:36;;;;;;;;;;;;;;;12.42;38.11;100707.31;4941208;28;125642;-62
2022/04/04 00:14:03;;;;;;;;;;;;;;;12.40;38.16;100698.66;4941705;28;126980;-62
2022/04/04 00:16:29;;;;;;;;;;;;;;;12.39;37.96;100699.75;4941487;28;98405;-62
2022/04/04 00:18:55;;;;;;;;;;;;;;;12.37;38.10;100701.09;4940935;28;128374;-62
2022/04/04 00:21:21;;;;;;;;;;;;;;;12.35;38.12;100701.38;4941285;28;126135;-62
2022/04/04 00:23:46;;;;;;;;;;;;;;;12.34;38.28;100704.31;4941889;28;97728;-62
2022/04/04 00:26:12;;;;;;;;;;;;;;;12.32;38.07;100704.63;4941176;28;117008;-62
2022/04/04 00:28:38;;;;;;;;;;;;;;;12.31;37.93;100705.69;4941636;28;98268;-62
2022/04/04 00:31:04;;;;;;;;;;;;;;;12.29;38.22;100705.16;4940628;28;128047;-63
2022/04/04 00:33:31;;;;;;;;;;;;;;;12.27;38.20;100702.72;4941044;28;126869;-62
2022/04/04 00:35:57;;;;;;;;;;;;;;;12.26;38.13;100701.13;4942006;28;98078;-62
2022/04/04 00:38:23;;;;;;;;;;;;;;;12.24;38.16;100705.16;4940019;28;128887;-62
2022/04/04 00:40:49;;;;;;;;;;;;;;;12.23;38.45;100695.44;4938536;28;128243;-62
2022/04/04 00:43:15;;;;;;;;;;;;;;;12.21;38.18;100698.41;4940851;28;123981;-62
2022/04/04 00:45:45;;;;;;;;;;;;;;;12.20;38.63;100696.78;4955641;28;116680;-62
2022/04/04 00:48:11;;;;;;;;;;;;;;;12.19;38.52;100692.47;4939721;28;99052;-62
2022/04/04 00:50:37;;;;;;;;;;;;;;;12.18;38.56;100690.03;4940725;28;115318;-62
2022/04/04 00:53:03;;;;;;;;;;;;;;;12.16;38.45;100687.59;4956342;28;128173;-62
2022/04/04 00:55:29;;;;;;;;;;;;;;;12.14;38.34;100689.75;4958394;28;118458;-62
2022/04/04 00:57:55;;;;;;;;;;;;;;;12.13;38.63;100690.84;4960255;28;98354;-62
2022/04/04 01:00:21;;;;;;;;;;;;;;;12.12;38.76;100683.03;4955559;28;99249;-62
2022/04/04 01:02:47;;;;;;;;;;;;;;;12.11;38.84;100682.22;4940040;28;126168;-62
2022/04/04 01:05:13;;;;;;;;;;;;;;;12.11;38.35;100686.81;4940529;28;117456;-62
2022/04/04 01:07:39;;;;;;;;;;;;;;;12.08;38.47;100679.25;4946740;28;127137;-62
2022/04/04 01:10:06;;;;;;;;;;;;;;;12.08;38.44;100679.25;4942172;28;98879;-62
2022/04/04 01:12:32;;;;;;;;;;;;;;;12.06;38.80;100681.41;4940678;28;111855;-62
2022/04/04 01:14:58;;;;;;;;;;;;;;;12.04;38.50;100681.69;4940881;28;111385;-62
2022/04/04 01:17:27;;;;;;;;;;;;;;;12.03;38.76;100680.06;4940410;28;126373;-62
2022/04/04 01:19:53;;;;;;;;;;;;;;;12.01;38.54;100677.63;4939855;28;99037;-62
2022/04/04 01:22:19;;;;;;;;;;;;;;;12.01;38.70;100676.81;4940240;28;98366;-62
2022/04/04 01:24:45;;;;;;;;;;;;;;;11.99;38.84;100681.69;4941082;28;98146;-62
2022/04/04 01:27:14;;;;;;;;;;;;;;;11.97;38.81;100673.84;4940306;28;112876;-62
2022/04/04 01:29:40;;;;;;;;;;;;;;;11.97;38.86;100670.34;4940594;28;98230;-62
2022/04/04 01:32:06;;;;;;;;;;;;;;;11.96;38.44;100666.81;4940018;28;127226;-62
2022/04/04 01:34:32;;;;;;;;;;;;;;;11.94;38.93;100668.97;4938717;28;113671;-62
2022/04/04 01:36:58;;;;;;;;;;;;;;;11.92;39.04;100660.34;4940696;28;98332;-62
2022/04/04 01:39:26;;;;;;;;;;;;;;;11.91;38.87;100666.84;4939632;28;119553;-62
2022/04/04 01:41:52;;;;;;;;;;;;;;;11.89;38.88;100657.38;4940641;28;97983;-62
2022/04/04 01:44:18;;;;;;;;;;;;;;;11.89;38.82;100660.06;4939869;28;117719;-62
2022/04/04 01:46:44;;;;;;;;;;;;;;;11.89;38.96;100662.78;4939825;28;99504;-62
2022/04/04 01:49:10;;;;;;;;;;;;;;;11.87;39.00;100664.94;4939057;28;117968;-62
2022/04/04 01:51:38;;;;;;;;;;;;;;;11.86;39.08;100657.91;4944045;28;100975;-61
2022/04/04 01:54:04;;;;;;;;;;;;;;;11.85;39.08;100653.59;4949507;28;98099;-62
2022/04/04 01:56:30;;;;;;;;;;;;;;;11.85;38.65;100656.28;4939128;28;126635;-61
2022/04/04 01:58:56;;;;;;;;;;;;;;;11.83;39.34;100659.28;4940687;28;98339;-62
2022/04/04 02:01:23;;;;;;;;;;;;;;;11.82;38.64;100654.09;4939830;28;127679;-63
2022/04/04 02:03:51;;;;;;;;;;;;;;;11.79;39.15;100647.38;4940804;28;98043;-62
2022/04/04 02:06:18;;;;;;;;;;;;;;;11.78;39.60;100656.53;4940369;28;99046;-62
2022/04/04 02:08:44;;;;;;;;;;;;;;;11.77;39.30;100655.72;4918754;28;100061;-62
2022/04/04 02:11:10;;;;;;;;;;;;;;;11.77;39.04;100652.22;4917765;28;98477;-62
2022/04/04 02:13:36;;;;;;;;;;;;;;;11.74;38.86;100648.16;4930155;28;98067;-62
2022/04/04 02:16:02;;;;;;;;;;;;;;;11.73;39.51;100649.25;4938701;28;122286;-62
2022/04/04 02:18:29;;;;;;;;;;;;;;;11.74;39.14;100648.16;4940382;28;98585;-62
2022/04/04 02:20:55;;;;;;;;;;;;;;;11.72;39.00;100647.63;4939535;28;98314;-62
2022/04/04 02:23:21;;;;;;;;;;;;;;;11.71;39.33;100640.63;4939690;28;116755;-62
2022/04/04 02:25:47;;;;;;;;;;;;;;;11.71;39.14;100648.72;4938452;28;129015;-62
2022/04/04 02:28:13;;;;;;;;;;;;;;;11.69;39.54;100644.66;4940446;28;105812;-62
2022/04/04 02:30:40;;;;;;;;;;;;;;;11.68;39.20;100638.44;4940267;28;98136;-62
2022/04/04 02:33:06;;;;;;;;;;;;;;;11.67;39.26;100638.69;4944205;28;98035;-62
2022/04/04 02:35:32;;;;;;;;;;;;;;;11.66;39.36;100635.19;4942610;28;128393;-62
2022/04/04 02:37:58;;;;;;;;;;;;;;;11.65;39.08;100633.59;4943562;28;98344;-62
2022/04/04 02:40:24;;;;;;;;;;;;;;;11.66;39.03;100629.00;4957408;28;98257;-62
2022/04/04 02:42:50;;;;;;;;;;;;;;;11.64;39.59;100629.28;4942970;28;97730;-62
2022/04/04 02:45:16;;;;;;;;;;;;;;;11.63;39.30;100621.44;4942474;28;127574;-62
2022/04/04 02:47:43;;;;;;;;;;;;;;;11.62;39.24;100622.50;4942766;28;128231;-62
2022/04/04 02:50:09;;;;;;;;;;;;;;;11.61;39.26;100618.19;4957649;28;97929;-62
2022/04/04 02:52:35;;;;;;;;;;;;;;;11.60;39.17;100624.69;4956735;28;97884;-62
2022/04/04 02:56:29;;;;;;;;;;;;;;;11.59;39.13;100612.25;4945056;28;127196;-62
2022/04/04 02:57:50;;;;;;;;;;;;;;;11.58;39.17;100614.13;4943062;28;99943;-62
2022/04/04 03:00:19;;;;;;;;;;;;;;;11.58;39.39;100616.03;4941505;28;126558;-62
2022/04/04 03:02:46;;;;;;;;;;;;;;;11.56;39.63;100616.31;4943359;28;97934;-62
2022/04/04 03:05:12;;;;;;;;;;;;;;;11.55;39.72;100618.22;4941786;28;128218;-62
2022/04/04 03:07:38;;;;;;;;;;;;;;;11.53;39.61;100614.94;4948228;28;126589;-62
2022/04/04 03:10:04;;;;;;;;;;;;;;;11.53;39.80;100616.84;4944200;28;128235;-61
2022/04/04 03:12:30;;;;;;;;;;;;;;;11.51;39.49;100611.72;4942903;28;97714;-62
2022/04/04 03:14:56;;;;;;;;;;;;;;;11.52;39.36;100612.53;4942293;28;126549;-62
2022/04/04 03:17:22;;;;;;;;;;;;;;;11.50;39.33;100604.69;4943899;28;99507;-61
2022/04/04 03:19:48;;;;;;;;;;;;;;;11.50;39.94;100611.97;4942051;28;128062;-62
2022/04/04 03:22:14;;;;;;;;;;;;;;;11.48;39.99;100603.34;4942512;28;108945;-62
2022/04/04 03:24:40;;;;;;;;;;;;;;;11.47;40.02;100601.72;4957341;28;98247;-61
2022/04/04 03:27:06;;;;;;;;;;;;;;;11.46;39.77;100609.00;4941655;28;128028;-62
2022/04/04 03:29:32;;;;;;;;;;;;;;;11.47;40.08;100607.13;4941339;28;128066;-62
2022/04/04 03:31:59;;;;;;;;;;;;;;;11.45;39.99;100601.19;4941641;28;117613;-62
2022/04/04 03:34:25;;;;;;;;;;;;;;;11.43;39.98;100604.13;4942934;28;98180;-62
2022/04/04 03:36:51;;;;;;;;;;;;;;;11.42;40.13;100597.13;4941997;28;119307;-62
2022/04/04 03:39:17;;;;;;;;;;;;;;;11.41;39.60;100597.41;4941133;28;127448;-63
2022/04/04 03:41:45;;;;;;;;;;;;;;;11.40;39.84;100593.91;4942473;28;97909;-62
2022/04/04 03:44:11;;;;;;;;;;;;;;;11.39;39.82;100594.97;4941659;28;98534;-62
2022/04/04 03:46:38;;;;;;;;;;;;;;;11.39;39.83;100594.16;4941678;28;120225;-62
2022/04/04 03:49:05;;;;;;;;;;;;;;;11.37;39.83;100591.75;4941871;28;106057;-62
2022/04/04 03:51:31;;;;;;;;;;;;;;;11.36;39.91;100590.13;4944980;28;105640;-63
2022/04/04 03:53:56;;;;;;;;;;;;;;;11.36;39.87;100592.81;4950612;28;126938;-61
2022/04/04 03:56:22;;;;;;;;;;;;;;;11.33;39.81;100579.88;4941415;28;113177;-62
2022/04/04 03:58:49;;;;;;;;;;;;;;;11.32;39.71;100589.06;4941244;28;127510;-62
2022/04/04 04:01:15;;;;;;;;;;;;;;;11.31;39.93;100580.13;4942091;28;97840;-61
2022/04/04 04:03:41;;;;;;;;;;;;;;;11.29;40.18;100579.59;4941651;28;128385;-62
2022/04/04 04:06:14;;;;;;;;;;;;;;;11.30;39.79;100577.69;4942383;28;106986;-62
2022/04/04 04:08:44;;;;;;;;;;;;;;;11.28;39.74;100580.69;4949513;28;98231;-62
2022/04/04 04:11:10;;;;;;;;;;;;;;;11.27;39.85;100579.03;4941656;28;101426;-62
2022/04/04 04:13:37;;;;;;;;;;;;;;;11.26;40.32;100576.63;4941944;28;98108;-62
2022/04/04 04:16:04;;;;;;;;;;;;;;;11.25;40.16;100575.81;4941218;28;99378;-62
2022/04/04 04:18:29;;;;;;;;;;;;;;;11.25;40.04;100572.31;4940916;28;128330;-62
2022/04/04 04:20:55;;;;;;;;;;;;;;;11.24;39.92;100568.81;4939996;28;117698;-61
2022/04/04 04:23:21;;;;;;;;;;;;;;;11.24;39.80;100565.31;4940824;28;98517;-63
2022/04/04 04:25:48;;;;;;;;;;;;;;;11.24;40.22;100570.69;4941044;28;98339;-63
2022/04/04 04:28:14;;;;;;;;;;;;;;;11.24;39.88;100562.59;4941549;28;98750;-62
2022/04/04 04:30:40;;;;;;;;;;;;;;;11.23;39.90;100561.75;4940140;28;116140;-63
2022/04/04 04:33:06;;;;;;;;;;;;;;;11.24;40.18;100555.31;4941174;28;98581;-62
2022/04/04 04:35:33;;;;;;;;;;;;;;;11.25;40.21;100558.81;4941646;28;99226;-62
2022/04/04 04:38:00;;;;;;;;;;;;;;;11.25;39.99;100551.53;4939345;28;98625;-63
2022/04/04 04:40:27;;;;;;;;;;;;;;;11.26;40.22;100552.34;4941175;28;98249;-63
2022/04/04 04:42:53;;;;;;;;;;;;;;;11.27;39.58;100549.34;4938583;28;99391;-62
2022/04/04 04:45:19;;;;;;;;;;;;;;;11.28;39.68;100544.78;4937477;28;105219;-62
2022/04/04 04:47:45;;;;;;;;;;;;;;;11.30;40.35;100543.41;4936562;28;128305;-63
2022/04/04 04:50:13;;;;;;;;;;;;;;;11.31;40.08;100545.03;4053377;28;10000578;-62
2022/04/04 04:52:39;;;;;;;;;;;;;;;11.35;39.65;100544.50;4937992;28;98312;-63
2022/04/04 04:55:06;;;;;;;;;;;;;;;11.38;40.04;100535.88;4939722;28;107592;-63
2022/04/04 04:57:32;;;;;;;;;;;;;;;11.40;39.93;100542.63;4922447;28;98488;-62
2022/04/04 04:59:58;;;;;;;;;;;;;;;11.43;39.82;100542.06;4937828;28;128732;-63
2022/04/04 05:02:24;;;;;;;;;;;;;;;11.45;39.51;100534.53;4941058;28;98304;-63
2022/04/04 05:04:50;;;;;;;;;;;;;;;11.48;39.90;100533.97;4941522;28;97967;-62
2022/04/04 05:07:15;;;;;;;;;;;;;;;11.52;39.44;100537.75;4958694;28;109958;-62
2022/04/04 05:09:41;;;;;;;;;;;;;;;11.55;39.72;100529.13;4944775;28;129050;-63
2022/04/04 05:12:08;;;;;;;;;;;;;;;11.60;39.44;100530.19;4940443;28;117152;-62
2022/04/04 05:14:34;;;;;;;;;;;;;;;11.66;39.48;100518.28;4942126;28;97905;-65
2022/04/04 05:17:00;;;;;;;;;;;;;;;11.71;39.65;100526.38;4939932;28;125158;-63
2022/04/04 05:19:26;;;;;;;;;;;;;;;11.76;39.63;100524.50;4941018;28;99528;-63
2022/04/04 05:21:51;;;;;;;;;;;;;;;11.82;39.28;100524.47;4939594;28;128222;-63
2022/04/04 05:24:17;;;;;;;;;;;;;;;11.85;39.18;100519.34;4940625;28;117684;-63
2022/04/04 05:26:43;;;;;;;;;;;;;;;11.90;39.28;100519.34;4939707;28;123519;-63
2022/04/04 05:29:09;;;;;;;;;;;;;;;11.95;39.80;100526.63;4941367;28;99008;-63
2022/04/04 05:31:36;;;;;;;;;;;;;;;11.99;39.55;100525.00;4939482;28;128375;-63
2022/04/04 05:34:07;;;;;;;;;;;;;;;12.03;39.66;100526.88;4939773;28;109132;-63
2022/04/04 05:36:33;;;;;;;;;;;;;;;12.08;39.48;100526.03;4941409;28;98312;-63
2022/04/04 05:38:59;;;;;;;;;;;;;;;12.13;39.63;100526.03;4941424;28;98646;-63
2022/04/04 05:41:27;;;;;;;;;;;;;;;12.16;39.23;100524.66;4940644;28;98177;-62
2022/04/04 05:43:53;;;;;;;;;;;;;;;12.16;39.59;100520.06;4940618;28;98138;-62
2022/04/04 05:46:19;;;;;;;;;;;;;;;12.18;39.32;100523.31;4939463;28;114169;-62
2022/04/04 05:48:45;;;;;;;;;;;;;;;12.23;39.80;100522.47;4938999;28;98684;-62
2022/04/04 05:51:13;;;;;;;;;;;;;;;12.28;39.22;100525.97;4940494;28;98491;-62
2022/04/04 05:53:39;;;;;;;;;;;;;;;12.34;39.24;100512.41;4947690;28;98090;-62
2022/04/04 05:56:05;;;;;;;;;;;;;;;12.44;39.30;100515.06;4939459;28;128159;-63
2022/04/04 05:58:31;;;;;;;;;;;;;;;12.56;39.36;100512.03;4940245;28;126038;-63
2022/04/04 06:00:57;;;;;;;;;;;;;;;12.69;39.44;100503.28;4940011;28;112290;-62
2022/04/04 06:03:23;;;;;;;;;;;;;;;12.84;39.02;100510.50;4940317;28;98343;-62
2022/04/04 06:05:50;;;;;;;;;;;;;;;13.00;38.83;100503.91;4939953;28;122861;-63
2022/04/04 06:08:19;;;;;;;;;;;;;;;13.15;38.76;100498.38;4950169;28;98827;-62
2022/04/04 06:10:45;;;;;;;;;;;;;;;13.31;38.73;100493.66;4942467;28;127408;-62
2022/04/04 06:13:13;;;;;;;;;;;;;;;13.48;38.79;100490.53;4944827;28;97902;-62
2022/04/04 06:15:39;;;;;;;;;;;;;;;13.65;38.54;100496.31;4944306;28;98445;-63
2022/04/04 06:18:05;;;;;;;;;;;;;;;13.80;38.56;100491.84;4943234;28;123551;-62
2022/04/04 06:20:31;;;;;;;;;;;;;;;13.94;38.38;100490.84;4941040;28;104478;-62
2022/04/04 06:22:56;;;;;;;;;;;;;;;14.04;38.47;100487.22;4937906;28;116891;-62
2022/04/04 06:25:23;;;;;;;;;;;;;;;14.12;38.51;100472.22;4923278;28;127810;-62
2022/04/04 06:27:49;;;;;;;;;;;;;;;14.20;38.51;100480.50;4922389;28;97726;-63
2022/04/04 06:30:15;;;;;;;;;;;;;;;14.28;38.45;100483.66;4942682;28;98211;-63
2022/04/04 06:32:43;;;;;;;;;;;;;;;14.27;38.67;100471.22;4943574;28;98168;-63
2022/04/04 06:35:12;;;;;;;;;;;;;;;14.36;38.39;100461.31;4943848;28;97837;-63
2022/04/04 06:37:38;;;;;;;;;;;;;;;14.71;38.25;100462.75;4942285;28;121502;-62
2022/04/04 06:40:05;;;;;;;;;;;;;;;14.95;38.08;100458.00;4924447;28;119855;-63
2022/04/04 06:42:35;;;;;;;;;;;;;;;15.11;37.77;100460.47;4942379;28;118034;-63
2022/04/04 06:45:01;;;;;;;;;;;;;;;15.29;37.82;100442.50;4942159;28;121690;-62
2022/04/04 06:47:26;;;;;;;;;;;;;;;15.56;37.68;100444.44;4940395;28;125495;-64
2022/04/04 06:49:52;;;;;;;;;;;;;;;15.75;37.37;100442.47;4942138;28;99757;-62
2022/04/04 06:52:19;;;;;;;;;;;;;;;15.86;37.37;100438.44;4946786;28;105206;-62
2022/04/04 06:54:48;;;;;;;;;;;;;;;15.92;37.45;100450.84;4941675;28;128894;-62
2022/04/04 06:57:15;;;;;;;;;;;;;;;15.97;37.61;100441.75;4943239;28;98541;-64
2022/04/04 06:59:42;;;;;;;;;;;;;;;16.03;37.29;100437.00;4941215;28;99790;-64
2022/04/04 07:02:08;;;;;;;;;;;;;;;16.13;37.41;100439.53;4957604;28;97822;-63
2022/04/04 07:04:34;;;;;;;;;;;;;;;16.26;37.36;100432.44;4942212;28;98558;-63
2022/04/04 07:07:00;;;;;;;;;;;;;;;16.34;37.17;100429.78;4943486;28;99473;-63
2022/04/04 07:09:26;;;;;;;;;;;;;;;16.31;37.29;100425.00;4947660;28;123879;-62
2022/04/04 07:11:52;;;;;;;;;;;;;;;16.30;37.64;100431.53;4941605;28;117710;-63
2022/04/04 07:14:18;;;;;;;;;;;;;;;16.28;37.50;100419.34;4941885;28;98511;-64
2022/04/04 07:16:44;;;;;;;;;;;;;;;16.26;37.79;100430.53;4942700;28;126414;-62
2022/04/04 07:19:15;;;;;;;;;;;;;;;16.33;37.45;100411.88;4941012;28;125598;-63
2022/04/04 07:21:42;;;;;;;;;;;;;;;16.43;37.40;100414.38;4944283;28;97980;-63
2022/04/04 07:24:08;;;;;;;;;;;;;;;16.52;37.63;100411.72;4941540;28;121202;-63
2022/04/04 07:26:34;;;;;;;;;;;;;;;16.65;37.30;100407.31;4941803;28;127633;-63
2022/04/04 07:29:00;;;;;;;;;;;;;;;16.79;37.33;100386.34;4941716;28;128229;-63
2022/04/04 07:31:26;;;;;;;;;;;;;;;16.96;37.13;100377.44;4957069;28;104808;-63
2022/04/04 07:33:52;;;;;;;;;;;;;;;17.13;36.75;100383.00;4956902;28;98034;-63
2022/04/04 07:36:18;;;;;;;;;;;;;;;17.38;36.71;100386.94;4942383;28;98567;-62
2022/04/04 07:38:44;;;;;;;;;;;;;;;17.67;36.59;100375.50;4941439;28;127563;-63
2022/04/04 07:41:10;;;;;;;;;;;;;;;18.01;36.35;100379.44;4956865;28;99391;-63
2022/04/04 07:43:35;;;;;;;;;;;;;;;18.39;36.06;100379.63;4941853;28;128152;-62
2022/04/04 07:46:01;;;;;;;;;;;;;;;18.78;35.75;100366.13;4942279;28;127128;-62
2022/04/04 07:48:28;;;;;;;;;;;;;;;19.09;35.73;100354.94;4941454;28;126915;-63
2022/04/04 07:50:54;;;;;;;;;;;;;;;19.43;35.46;100366.88;4942071;28;98270;-63
2022/04/04 07:53:20;;;;;;;;;;;;;;;19.76;35.06;100372.50;4948851;28;125405;-62
2022/04/04 07:55:45;;;;;;;;;;;;;;;20.20;35.36;100362.88;4942181;28;98576;-63
2022/04/04 07:58:11;;;;;;;;;;;;;;;20.53;34.79;100354.72;4941420;28;128063;-63
2022/04/04 08:00:37;;;;;;;;;;;;;;;20.71;34.81;100351.78;4942790;28;97765;-64
2022/04/04 08:03:04;;;;;;;;;;;;;;;20.62;35.19;100342.88;4942326;28;98379;-63
2022/04/04 08:05:30;;;;;;;;;;;;;;;20.73;35.04;100342.09;4942585;28;98432;-64
2022/04/04 08:07:56;;;;;;;;;;;;;;;21.04;34.93;100332.59;4949524;28;107863;-63
2022/04/04 08:10:22;;;;;;;;;;;;;;;21.45;34.57;100325.31;4943492;28;97715;-62
2022/04/04 08:12:51;;;;;;;;;;;;;;;21.80;34.46;100326.41;4941216;28;128202;-62
2022/04/04 08:15:17;;;;;;;;;;;;;;;22.16;34.25;100335.72;4941706;28;107204;-63
2022/04/04 08:17:44;;;;;;;;;;;;;;;22.44;34.11;100327.50;4942657;28;97919;-62
2022/04/04 08:20:10;;;;;;;;;;;;;;;23.02;33.62;100308.59;4956341;28;97960;-63
2022/04/04 08:22:44;;;;;;;;;;;;;;;23.72;33.26;100318.13;4956657;28;99070;-63
2022/04/04 08:25:10;;;;;;;;;;;;;;;24.37;33.02;100314.75;4941418;28;123200;-62
2022/04/04 08:27:36;;;;;;;;;;;;;;;25.05;32.25;100305.75;4941728;28;98421;-63
2022/04/04 08:30:06;;;;;;;;;;;;;;;25.44;32.39;100317.44;4941999;28;98021;-63
2022/04/04 08:32:38;;;;;;;;;;;;;;;25.77;32.22;100304.88;4940755;28;98816;-63
2022/04/04 08:35:06;;;;;;;;;;;;;;;26.14;32.12;100299.47;4941453;28;99025;-63
2022/04/04 08:37:33;;;;;;;;;;;;;;;26.39;32.16;100287.91;4941673;28;98278;-62
2022/04/04 08:39:59;;;;;;;;;;;;;;;26.66;31.94;100288.59;4941742;28;97780;-62
2022/04/04 08:42:28;;;;;;;;;;;;;;;27.44;31.25;100287.66;4941319;28;98451;-62
2022/04/04 08:44:55;;;;;;;;;;;;;;;28.16;30.77;100288.81;4941198;28;98597;-62
2022/04/04 08:47:22;;;;;;;;;;;;;;;28.19;30.77;100286.03;4941103;28;97811;-63
2022/04/04 08:49:54;;;;;;;;;;;;;;;28.90;30.50;100270.72;4941895;28;98124;-62
2022/04/04 08:52:20;;;;;;;;;;;;;;;29.42;29.75;100277.44;4960108;28;100276;-63
2022/04/04 08:54:47;;;;;;;;;;;;;;;29.31;30.26;100283.00;4941660;28;98840;-63
2022/04/04 08:57:13;;;;;;;;;;;;;;;29.38;29.93;100271.09;4941295;28;98225;-63
2022/04/04 08:59:39;;;;;;;;;;;;;;;29.66;29.45;100253.59;4941471;28;97739;-62
2022/04/04 09:02:05;;;;;;;;;;;;;;;29.89;29.56;100253.09;4940379;28;127800;-63
2022/04/04 09:04:33;;;;;;;;;;;;;;;30.32;29.23;100252.91;4940110;28;127034;-63
2022/04/04 09:07:03;;;;;;;;;;;;;;;31.09;28.30;100251.91;4941240;28;98143;-63
2022/04/04 09:09:42;;;;;;;;;;;;;;;31.69;28.11;100242.16;4948161;28;98178;-63
2022/04/04 09:12:10;;;;;;;;;;;;;;;32.12;27.73;100247.97;4941098;28;98420;-63
2022/04/04 09:14:37;;;;;;;;;;;;;;;32.66;27.36;100231.25;4940689;28;99088;-61
2022/04/04 09:17:05;;;;;;;;;;;;;;;33.23;26.85;100221.09;4938783;28;99514;-62
2022/04/04 09:19:31;;;;;;;;;;;;;;;33.27;27.40;100221.00;4956154;28;98191;-61
2022/04/04 09:21:57;;;;;;;;;;;;;;;33.19;27.37;100209.97;4940703;28;99105;-61
2022/04/04 09:24:42;;;;;;;;;;;;;;;32.47;27.65;100209.66;4955666;28;98468;-61
2022/04/04 09:27:12;;;;;;;;;;;;;;;33.27;27.13;100193.09;4953605;28;98425;-61
2022/04/04 09:29:42;;;;;;;;;;;;;;;33.75;26.55;100194.53;4957945;28;97701;-61
2022/04/04 09:32:14;;;;;;;;;;;;;;;34.08;26.38;100178.66;4940545;28;98672;-61
2022/04/04 09:35:02;;;;;;;;;;;;;;;34.11;26.16;100167.38;4941930;28;98294;-62
2022/04/04 09:37:32;;;;;;;;;;;;;;;34.49;26.16;100155.69;4940739;28;98123;-62
2022/04/04 09:40:03;;;;;;;;;;;;;;;34.39;25.96;100157.50;4941220;28;98112;-61
2022/04/04 09:42:31;;;;;;;;;;;;;;;34.38;26.00;100150.31;4940314;28;98455;-61
2022/04/04 09:45:02;;;;;;;;;;;;;;;33.93;26.03;100153.78;4940590;28;98474;-61
2022/04/04 09:47:48;;;;;;;;;;;;;;;33.99;26.24;100126.13;4941128;28;97904;-61
2022/04/04 09:50:42;;;;;;;;;;;;;;;33.76;25.84;100121.47;4941481;28;98198;-61
2022/04/04 09:53:15;;;;;;;;;;;;;;;32.59;26.70;100113.44;4946360;28;98495;-61
2022/04/04 09:56:04;;;;;;;;;;;;;;;32.25;26.77;100122.75;4940500;28;98181;-61
2022/04/04 09:58:30;;;;;;;;;;;;;;;31.59;27.12;100109.38;4940376;28;97748;-61
2022/04/04 10:00:58;;;;;;;;;;;;;;;31.03;27.14;100104.09;4939636;28;115324;-61
2022/04/04 10:03:25;;;;;;;;;;;;;;;30.45;27.25;100111.44;4940825;28;99034;-61
2022/04/04 10:06:09;;;;;;;;;;;;;;;29.83;27.32;100094.44;4939744;28;128398;-62
2022/04/04 10:08:36;;;;;;;;;;;;;;;29.06;28.05;100091.63;4947894;28;126512;-61
2022/04/04 10:11:03;;;;;;;;;;;;;;;28.40;28.00;100085.81;4939998;28;110531;-61
2022/04/04 10:13:29;;;;;;;;;;;;;;;27.91;28.26;100087.38;4955197;28;98119;-61
2022/04/04 10:15:55;;;;;;;;;;;;;;;27.52;28.27;100081.72;4937548;28;128525;-61
2022/04/04 10:18:21;;;;;;;;;;;;;;;27.31;28.24;100063.88;4937848;28;127394;-61
2022/04/04 10:20:53;;;;;;;;;;;;;;;27.29;27.92;100051.63;4941261;28;103458;-61
2022/04/04 10:23:19;;;;;;;;;;;;;;;27.13;28.21;100041.69;4940453;28;98427;-61
2022/04/04 10:25:46;;;;;;;;;;;;;;;27.12;28.01;100056.72;4954193;28;100613;-61
2022/04/04 10:28:24;;;;;;;;;;;;;;;27.14;27.81;100048.00;4938064;28;98429;-62
2022/04/04 10:30:50;;;;;;;;;;;;;;;27.36;27.67;100041.38;4953466;28;108936;-62
2022/04/04 10:33:23;;;;;;;;;;;;;;;27.51;27.54;100030.31;4939258;28;129038;-63
2022/04/04 10:35:59;;;;;;;;;;;;;;;27.88;27.31;100028.03;4954177;28;99771;-62
2022/04/04 10:38:33;;;;;;;;;;;;;;;28.23;26.98;100018.13;4939892;28;97944;-64
2022/04/04 10:41:00;;;;;;;;;;;;;;;29.12;26.42;100017.09;4941139;28;97878;-62
2022/04/04 10:43:30;;;;;;;;;;;;;;;29.87;25.85;100015.84;4940469;28;98606;-61
2022/04/04 10:46:01;;;;;;;;;;;;;;;30.12;26.28;99999.75;4953307;28;125452;-62
2022/04/04 10:48:29;;;;;;;;;;;;;;;30.26;26.19;99998.84;4939288;28;98116;-61
2022/04/04 10:51:00;;;;;;;;;;;;;;;30.25;26.46;100008.38;4939821;28;97782;-61
2022/04/04 10:53:40;;;;;;;;;;;;;;;29.90;26.94;99979.72;4943432;28;116396;-61
2022/04/04 10:56:06;;;;;;;;;;;;;;;29.94;26.63;99974.91;4943261;28;101292;-62
2022/04/04 10:58:32;;;;;;;;;;;;;;;29.72;26.84;99968.78;4940752;28;98137;-62
2022/04/04 11:01:03;;;;;;;;;;;;;;;29.44;27.13;99961.44;4942156;28;117337;-62
2022/04/04 11:03:39;;;;;;;;;;;;;;;29.25;26.92;99967.50;4957109;28;98668;-62
2022/04/04 11:09:08;;;;;;;;;;;;;;;29.66;26.18;99945.41;4960543;28;97907;-62
2022/04/04 11:11:52;;;;;;;;;;;;;;;30.16;26.02;99936.63;4958402;28;97932;-62
2022/04/04 11:14:41;;;;;;;;;;;;;;;30.00;26.25;99928.84;4942142;28;98519;-61
2022/04/04 11:20:00;;;;;;;;;;;;;;;30.55;25.58;99919.50;4940178;28;97931;-61
2022/04/04 11:22:33;;;;;;;;;;;;;;;30.86;25.20;99919.53;4943341;28;97609;-62
2022/04/04 11:25:05;;;;;;;;;;;;;;;31.03;25.19;99895.44;4942748;28;97834;-61
2022/04/04 11:27:33;;;;;;;;;;;;;;;31.67;24.77;99894.41;4943657;28;98193;-62
2022/04/04 11:30:00;;;;;;;;;;;;;;;31.77;24.76;99896.25;4942308;28;98296;-62
2022/04/04 11:32:34;;;;;;;;;;;;;;;30.69;25.59;99893.50;4943412;28;97760;-61
2022/04/04 11:35:11;;;;;;;;;;;;;;;31.41;25.13;99884.16;4942506;28;99443;-61
2022/04/04 11:37:47;;;;;;;;;;;;;;;30.22;26.42;99879.41;4943648;28;99363;-62
2022/04/04 11:40:23;;;;;;;;;;;;;;;30.05;25.87;99874.81;4939688;28;98055;-62
2022/04/04 11:42:51;;;;;;;;;;;;;;;30.83;25.42;99852.84;4942035;28;98871;-62
2022/04/04 11:45:21;;;;;;;;;;;;;;;31.51;24.87;99897.88;4938708;28;99092;-62
2022/04/04 11:48:03;;;;;;;;;;;;;;;31.92;24.70;99860.59;4942287;28;98907;-61
2022/04/04 11:50:30;;;;;;;;;;;;;;;32.37;24.26;99845.34;4927363;28;97776;-62
2022/04/04 11:53:02;;;;;;;;;;;;;;;31.77;24.99;99854.47;4949720;28;98452;-62
2022/04/04 11:55:28;;;;;;;;;;;;;;;30.91;25.42;99832.84;4942562;28;99586;-62
2022/04/04 11:57:57;;;;;;;;;;;;;;;30.68;25.40;99824.41;4941157;28;125504;-62
2022/04/04 12:00:31;;;;;;;;;;;;;;;31.22;25.22;99818.84;4943593;28;98271;-62
2022/04/04 12:03:09;;;;;;;;;;;;;;;31.54;24.79;99821.06;4942311;28;98228;-61
2022/04/04 12:05:39;;;;;;;;;;;;;;;31.89;24.50;99797.38;4955327;28;98145;-61
2022/04/04 12:08:06;;;;;;;;;;;;;;;32.11;24.35;99792.16;4950283;28;98717;-62
2022/04/04 12:10:32;;;;;;;;;;;;;;;32.46;24.07;99789.81;4942412;28;98127;-62
2022/04/04 12:12:59;;;;;;;;;;;;;;;32.62;24.14;99781.50;4942084;28;98030;-62
2022/04/04 12:15:27;;;;;;;;;;;;;;;32.78;24.18;99771.53;4942565;28;98953;-62
2022/04/04 12:17:53;;;;;;;;;;;;;;;32.39;24.54;99781.59;4941594;28;99119;-62
2022/04/04 12:20:19;;;;;;;;;;;;;;;32.48;24.46;99763.06;4941876;28;98227;-62
2022/04/04 12:25:29;;;;;;;;;;;;;;;32.50;24.28;99763.44;4938104;28;98473;-62
2022/04/04 12:27:59;;;;;;;;;;;;;;;32.30;24.45;99754.28;4941192;28;128173;-62
2022/04/04 12:30:43;;;;;;;;;;;;;;;31.99;24.75;99732.28;4941231;28;98261;-61
2022/04/04 12:33:13;;;;;;;;;;;;;;;32.08;24.61;99730.91;4940998;28;118114;-62
2022/04/04 12:35:43;;;;;;;;;;;;;;;31.40;24.85;99721.13;4942439;28;98674;-62
2022/04/04 12:38:09;;;;;;;;;;;;;;;30.96;25.10;99718.28;4942267;28;98630;-62
2022/04/04 12:40:35;;;;;;;;;;;;;;;30.83;24.89;99720.13;4941482;28;97800;-61
2022/04/04 12:43:08;;;;;;;;;;;;;;;30.60;24.59;99711.72;4942242;28;97990;-62
2022/04/04 12:45:43;;;;;;;;;;;;;;;30.45;25.01;99700.81;4941474;28;97888;-62